Zemst, Belgium
Current Conditions -  °F | °C
As of 9:50 AM on Monday 20 Oct 2014 (Local Time) from EBBR Reporting Station
Broken Clouds Broken Clouds  
Wind Chill: 57°   Ceiling: 2500
Heat Index: 57°   Visibility: 6mi
Dew Point: 52°   Wind: 10mph
Humidity: 82%   Direction: 240°WSW
Pressure: 30.06"   Gusts: NA
Location:  50.98°N, 4.46°E
Report Text: EBBR 200750Z 24009KT 9999 FEW012 BKN025 14/11 Q1018 NOSIG
Loading
Personal Weather Stations






























Interactive Weather Map New forecast layout! Learn more

10-Day Weather Forecast

Advertisements
Track Severe Weather on mobile